Home   Weather   Germany   Frankfurt   Past weeks
Flag for Germany

Past Weather in Frankfurt, Hesse, Germany — August 2018

Currently: 43 °F. Passing clouds. (Weather station: Frankfurt-M-Flughafen Airport, Germany). See more current weather

August 2018 Weather in Frankfurt — Graph

°F

High & Low Weather Summary for August 2018

 TemperatureHumidityPressure
High97 °F (Aug 3, 5:20 pm)100% (Aug 2, 4:20 am)30.24 "Hg (Aug 2, 4:20 am)
Low43 °F (Aug 26, 5:50 am)19% (Aug 19, 5:50 pm)29.77 "Hg (Aug 7, 7:20 pm)
Average72 °F57%30.02 "Hg
* Reported Aug 1 12:20 am — Aug 31 11:50 pm, Frankfurt. Weather by CustomWeather, © 2022

Note: Actual official high and low records may vary slightly from our data, if they occured in-between our weather recording intervals... More about our weather records

Frankfurt Weather History for August 1, 2018

Scroll right to see more
 ConditionsComfort  
Time TempWeatherWind HumidityBarometerVisibility
12:20 am
Wed, Aug 1
81 °FClear.10 mph48%30.04 "Hg10 mi
12:50 am79 °FPassing clouds.5 mph51%30.04 "HgN/A
1:20 am79 °FClear.9 mph51%30.07 "Hg10 mi
1:50 am81 °FClear.9 mph48%30.07 "Hg10 mi
2:20 am79 °FClear.9 mph48%30.07 "Hg10 mi
2:50 am79 °FClear.7 mph48%30.07 "Hg10 mi
3:20 am77 °FClear.5 mph51%30.07 "Hg10 mi
3:50 am77 °FPassing clouds.8 mph54%30.07 "HgN/A
4:20 am77 °FPassing clouds.8 mph57%30.07 "HgN/A
4:50 am77 °FScattered showers. Passing clouds.7 mph57%30.07 "HgN/A
5:20 am77 °FScattered showers. Passing clouds.8 mph57%30.07 "HgN/A
5:50 am73 °FScattered showers. Passing clouds.1 mph61%30.09 "HgN/A
6:20 am73 °FScattered showers. Partly sunny.2 mph61%30.07 "HgN/A
6:50 am77 °FSprinkles. Broken clouds.8 mph57%30.07 "HgN/A
7:20 am77 °FSprinkles. Broken clouds.15 mph57%30.07 "HgN/A
7:50 am75 °FSprinkles. Broken clouds.15 mph61%30.09 "HgN/A
8:50 am75 °FSunny.15 mph61%30.09 "Hg10 mi
9:20 am75 °FSunny.14 mph61%30.09 "Hg10 mi
9:50 am77 °FSunny.12 mph57%30.09 "Hg10 mi
10:20 am77 °FSunny.10 mph57%30.12 "Hg10 mi
10:50 am81 °FPassing clouds.10 mph51%30.09 "HgN/A
11:20 am82 °FPassing clouds.9 mph48%30.12 "HgN/A
11:50 am84 °FSunny.5 mph45%30.12 "Hg10 mi
12:20 pm86 °FSunny.5 mph43%30.12 "Hg10 mi
12:50 pm86 °FPassing clouds.7 mph43%30.12 "HgN/A
1:20 pm88 °FSunny.7 mph40%30.09 "Hg10 mi
1:50 pm90 °FPassing clouds.8 mph41%30.09 "HgN/A
2:20 pm86 °FPassing clouds.10 mph43%30.09 "HgN/A
2:50 pm88 °FPassing clouds.9 mph40%30.09 "HgN/A
3:20 pm88 °FPassing clouds.10 mph38%30.09 "HgN/A
3:50 pm86 °FPassing clouds.13 mph40%30.12 "HgN/A
4:20 pm84 °FPartly sunny.14 mph45%30.09 "HgN/A
4:50 pm82 °FSprinkles. Broken clouds.15 mph48%30.12 "HgN/A
5:20 pm81 °FPartly sunny.20 mph48%30.12 "HgN/A
5:50 pm77 °FPartly sunny.15 mph61%30.12 "HgN/A
6:20 pm75 °FPartly sunny.12 mph65%30.12 "HgN/A
6:50 pm75 °FPartly sunny.7 mph65%30.09 "HgN/A
7:20 pm75 °FBroken clouds.5 mph65%30.09 "HgN/A
7:50 pm73 °FScattered showers. Broken clouds.8 mph74%30.09 "HgN/A
8:50 pm75 °FScattered showers. Broken clouds.3 mph69%30.09 "HgN/A
9:20 pm73 °FPartly cloudy.7 mph74%30.12 "HgN/A
9:50 pm72 °FClear.3 mph78%30.12 "Hg10 mi
10:20 pm72 °FClear.2 mph78%30.12 "Hg10 mi
10:50 pm70 °FClear.6 mph83%30.15 "Hg10 mi
11:20 pm70 °FClear.5 mph83%30.15 "Hg10 mi
11:50 pm70 °FClear.2 mph83%30.15 "Hg10 mi
Weather by CustomWeather, © 2022

See weather overview